createdAt,value
2022-08-30T00:00:32.656Z,95.72
2022-08-30T00:03:01.860Z,95.17
2022-08-30T00:05:31.801Z,94.87
2022-08-30T00:07:59.557Z,95.51
2022-08-30T00:10:29.623Z,95.50
2022-08-30T00:12:59.240Z,96.28
2022-08-30T00:15:29.170Z,95.75
2022-08-30T00:17:57.070Z,94.87
2022-08-30T00:20:27.986Z,94.62
2022-08-30T00:22:57.378Z,93.51
2022-08-30T00:25:25.093Z,93.11
2022-08-30T00:27:53.065Z,92.68
2022-08-30T00:30:22.045Z,92.35
2022-08-30T00:32:49.969Z,92.68
2022-08-30T00:35:20.395Z,93.00
2022-08-30T00:37:48.457Z,93.10
2022-08-30T00:40:19.581Z,93.33
2022-08-30T00:42:56.750Z,93.52
2022-08-30T00:45:28.265Z,93.82
2022-08-30T00:47:56.684Z,94.47
2022-08-30T00:50:29.017Z,94.98
2022-08-30T00:53:00.130Z,94.89
2022-08-30T00:55:30.604Z,95.20
2022-08-30T00:58:05.001Z,95.94
2022-08-30T01:00:33.685Z,95.83
2022-08-30T01:03:01.392Z,96.74
2022-08-30T01:05:29.244Z,97.00
2022-08-30T01:07:57.257Z,97.13
2022-08-30T01:10:24.989Z,97.59
2022-08-30T01:12:53.909Z,97.67
2022-08-30T01:15:22.026Z,98.15
2022-08-30T01:17:50.003Z,98.88
2022-08-30T01:20:25.143Z,100.00
2022-08-30T01:23:12.418Z,100.00
2022-08-30T01:25:42.384Z,100.00
2022-08-30T01:28:12.441Z,100.00
2022-08-30T01:30:42.740Z,100.00
2022-08-30T01:33:11.940Z,100.00
2022-08-30T01:35:48.795Z,100.00
2022-08-30T01:38:19.250Z,100.00
2022-08-30T01:40:46.910Z,100.00
2022-08-30T01:43:15.896Z,100.00
2022-08-30T01:45:43.990Z,100.00
2022-08-30T01:48:12.720Z,100.00
2022-08-30T01:50:41.905Z,100.00
2022-08-30T01:53:13.166Z,100.00
2022-08-30T01:55:43.056Z,100.00
2022-08-30T01:58:10.761Z,100.00
2022-08-30T02:00:39.144Z,100.00
2022-08-30T02:03:07.398Z,100.00
2022-08-30T02:05:35.434Z,100.00
2022-08-30T02:08:03.498Z,100.00
2022-08-30T02:10:31.348Z,100.00
2022-08-30T02:13:00.341Z,100.00
2022-08-30T02:15:27.915Z,100.00
2022-08-30T02:17:55.469Z,100.00
2022-08-30T02:20:23.136Z,100.00
2022-08-30T02:22:50.830Z,100.00
2022-08-30T02:25:21.056Z,100.00
2022-08-30T02:27:48.976Z,100.00
2022-08-30T02:30:17.938Z,100.00
2022-08-30T02:32:45.552Z,100.00
2022-08-30T02:35:13.123Z,100.00
2022-08-30T02:37:40.801Z,100.00
2022-08-30T02:40:10.051Z,100.00
2022-08-30T02:42:37.745Z,100.00
2022-08-30T02:45:05.987Z,100.00
2022-08-30T02:47:35.473Z,100.00
2022-08-30T02:50:03.893Z,100.00
2022-08-30T02:52:31.642Z,100.00
2022-08-30T02:54:59.677Z,100.00
2022-08-30T02:57:27.520Z,100.00
2022-08-30T02:59:55.091Z,100.00
2022-08-30T03:02:23.152Z,100.00
2022-08-30T03:04:52.228Z,100.00
2022-08-30T03:07:19.945Z,100.00
2022-08-30T03:09:47.550Z,100.00
2022-08-30T03:12:15.157Z,100.00
2022-08-30T03:14:42.863Z,100.00
2022-08-30T03:17:12.718Z,100.00
2022-08-30T03:19:44.010Z,100.00
2022-08-30T03:22:13.506Z,100.00
2022-08-30T03:24:41.510Z,100.00
2022-08-30T03:27:09.588Z,100.00
2022-08-30T03:29:37.200Z,100.00
2022-08-30T03:32:05.128Z,100.00
2022-08-30T03:34:32.817Z,100.00
2022-08-30T03:37:01.243Z,100.00
2022-08-30T03:39:30.176Z,100.00
2022-08-30T03:41:57.762Z,100.00
2022-08-30T03:44:26.970Z,100.00
2022-08-30T03:46:55.246Z,100.00
2022-08-30T03:49:24.024Z,100.00
2022-08-30T03:51:52.337Z,100.00
2022-08-30T03:54:19.913Z,100.00
2022-08-30T03:56:48.832Z,100.00
2022-08-30T03:59:16.765Z,100.00
2022-08-30T04:01:45.695Z,100.00
2022-08-30T04:04:16.288Z,100.00
2022-08-30T04:06:46.260Z,100.00
2022-08-30T04:09:13.812Z,100.00
2022-08-30T04:11:41.396Z,100.00
2022-08-30T04:14:10.728Z,100.00
2022-08-30T04:16:38.337Z,100.00
2022-08-30T04:19:06.311Z,100.00
2022-08-30T04:21:33.934Z,100.00
2022-08-30T04:24:10.393Z,100.00
2022-08-30T04:26:38.160Z,100.00
2022-08-30T04:29:05.831Z,100.00
2022-08-30T04:31:34.872Z,100.00
2022-08-30T04:34:02.474Z,100.00
2022-08-30T04:36:30.249Z,100.00
2022-08-30T04:38:58.171Z,100.00
2022-08-30T04:41:25.761Z,100.00
2022-08-30T04:43:53.446Z,100.00
2022-08-30T04:46:21.165Z,100.00
2022-08-30T04:48:50.481Z,100.00
2022-08-30T04:51:18.921Z,100.00
2022-08-30T04:53:46.511Z,100.00
2022-08-30T04:56:17.357Z,100.00
2022-08-30T04:58:45.496Z,100.00
2022-08-30T05:01:15.123Z,100.00
2022-08-30T05:03:46.748Z,100.00
2022-08-30T05:06:16.786Z,100.00
2022-08-30T05:08:45.989Z,100.00
2022-08-30T05:11:14.756Z,100.00
2022-08-30T05:13:42.690Z,100.00
2022-08-30T05:16:10.718Z,100.00
2022-08-30T05:18:38.545Z,100.00
2022-08-30T05:21:08.834Z,100.00
2022-08-30T05:23:39.273Z,100.00
2022-08-30T05:26:08.622Z,100.00
2022-08-30T05:28:36.307Z,100.00
2022-08-30T05:31:04.649Z,100.00
2022-08-30T05:33:41.789Z,100.00
2022-08-30T05:36:10.425Z,100.00
2022-08-30T05:38:39.777Z,100.00
2022-08-30T05:41:11.019Z,100.00
2022-08-30T05:43:39.260Z,100.00
2022-08-30T05:46:10.218Z,100.00
2022-08-30T05:48:38.649Z,100.00
2022-08-30T05:51:09.200Z,100.00
2022-08-30T05:53:37.339Z,100.00
2022-08-30T05:56:09.424Z,100.00
2022-08-30T05:58:37.770Z,100.00
2022-08-30T06:01:05.759Z,100.00
2022-08-30T06:03:33.819Z,100.00
2022-08-30T06:06:02.872Z,100.00
2022-08-30T06:08:30.549Z,100.00
2022-08-30T06:10:58.141Z,100.00
2022-08-30T06:13:27.054Z,100.00
2022-08-30T06:15:54.675Z,100.00
2022-08-30T06:18:28.383Z,100.00
2022-08-30T06:20:56.554Z,100.00
2022-08-30T06:23:24.635Z,100.00
2022-08-30T06:25:52.193Z,100.00
2022-08-30T06:28:19.754Z,100.00
2022-08-30T06:30:48.709Z,100.00
2022-08-30T06:33:16.273Z,100.00
2022-08-30T06:35:58.513Z,100.00
2022-08-30T06:38:27.741Z,100.00
2022-08-30T06:40:55.310Z,97.19
2022-08-30T06:43:22.868Z,93.17
2022-08-30T06:45:51.909Z,91.11
2022-08-30T06:48:19.449Z,83.31
2022-08-30T06:50:47.026Z,80.78
2022-08-30T06:53:15.430Z,71.82
2022-08-30T06:55:43.691Z,72.75
2022-08-30T06:58:11.285Z,72.05
2022-08-30T07:00:40.873Z,68.38
2022-08-30T07:03:09.848Z,66.20
2022-08-30T07:05:37.466Z,68.00
2022-08-30T07:08:05.021Z,69.84
2022-08-30T07:10:32.627Z,70.00
2022-08-30T07:13:00.233Z,71.27
2022-08-30T07:15:27.800Z,71.47
2022-08-30T07:18:14.582Z,69.49
2022-08-30T07:20:43.609Z,69.78
2022-08-30T07:23:12.032Z,69.49
2022-08-30T07:25:41.357Z,68.56
2022-08-30T07:28:09.669Z,69.41
2022-08-30T07:30:37.413Z,72.14
2022-08-30T07:33:05.131Z,70.52
2022-08-30T07:35:32.738Z,69.34
2022-08-30T07:38:01.615Z,70.06
2022-08-30T07:40:29.294Z,69.90
2022-08-30T07:42:56.920Z,67.76
2022-08-30T07:45:24.465Z,67.57
2022-08-30T07:47:52.197Z,67.87
2022-08-30T07:50:19.837Z,67.15
2022-08-30T07:52:47.381Z,67.87
2022-08-30T07:55:16.541Z,67.16
2022-08-30T07:57:44.129Z,66.51
2022-08-30T08:00:12.674Z,65.23
2022-08-30T08:02:40.813Z,66.37
2022-08-30T08:05:12.804Z,66.44
2022-08-30T08:07:44.337Z,63.15
2022-08-30T08:10:13.377Z,63.33
2022-08-30T08:12:42.462Z,62.19
2022-08-30T08:15:10.869Z,60.43
2022-08-30T08:17:38.769Z,59.44
2022-08-30T08:20:07.360Z,60.72
2022-08-30T08:22:39.349Z,60.09
2022-08-30T08:25:08.253Z,59.20
2022-08-30T08:27:35.897Z,58.05
2022-08-30T08:30:05.981Z,55.95
2022-08-30T08:32:33.559Z,54.84
2022-08-30T08:35:01.122Z,54.08
2022-08-30T08:37:28.744Z,54.92
2022-08-30T08:39:56.497Z,55.61
2022-08-30T08:42:32.849Z,53.98
2022-08-30T08:45:10.297Z,55.63
2022-08-30T08:47:42.228Z,55.34
2022-08-30T08:50:19.557Z,53.34
2022-08-30T08:53:10.836Z,52.65
2022-08-30T08:55:49.616Z,53.17
2022-08-30T08:58:24.012Z,52.34
2022-08-30T09:00:51.941Z,53.74
2022-08-30T09:03:23.266Z,51.15
2022-08-30T09:05:52.079Z,47.30
2022-08-30T09:08:21.202Z,46.37
2022-08-30T09:10:54.091Z,47.61
2022-08-30T09:13:23.057Z,46.97
2022-08-30T09:18:46.923Z,47.24
2022-08-30T09:21:24.938Z,46.64
2022-08-30T09:24:00.077Z,47.44
2022-08-30T09:26:33.341Z,44.93
2022-08-30T09:29:01.208Z,44.27
2022-08-30T09:31:30.993Z,43.32
2022-08-30T09:34:05.173Z,43.51
2022-08-30T09:36:40.660Z,44.05
2022-08-30T09:39:16.436Z,42.82
2022-08-30T09:41:46.656Z,43.28
2022-08-30T09:44:18.046Z,43.35
2022-08-30T09:46:49.606Z,43.84
2022-08-30T09:49:35.997Z,42.93
2022-08-30T09:52:12.885Z,43.34
2022-08-30T09:54:50.069Z,42.96
2022-08-30T09:57:33.526Z,43.37
2022-08-30T10:00:15.885Z,43.31
2022-08-30T10:02:59.992Z,42.48
2022-08-30T10:05:37.208Z,42.56
2022-08-30T10:08:15.461Z,43.38
2022-08-30T10:10:52.470Z,42.80
2022-08-30T10:13:44.053Z,42.14
2022-08-30T10:16:22.444Z,41.50
2022-08-30T10:19:00.448Z,41.91
2022-08-30T10:21:35.560Z,41.82
2022-08-30T10:24:07.125Z,41.72
2022-08-30T10:26:40.105Z,42.54
2022-08-30T10:29:14.642Z,44.24
2022-08-30T10:31:49.158Z,45.80
2022-08-30T10:34:21.145Z,45.71
2022-08-30T10:36:56.061Z,43.57
2022-08-30T10:39:30.866Z,44.49
2022-08-30T10:42:06.194Z,45.17
2022-08-30T10:44:38.928Z,41.92
2022-08-30T10:47:23.106Z,42.98
2022-08-30T10:49:56.779Z,45.32
2022-08-30T10:52:32.204Z,45.28
2022-08-30T10:55:05.609Z,43.11
2022-08-30T10:57:33.694Z,44.01
2022-08-30T11:00:05.879Z,43.83
2022-08-30T11:02:56.268Z,42.96
2022-08-30T11:05:48.505Z,42.81
2022-08-30T11:08:31.785Z,45.36
2022-08-30T11:11:07.505Z,44.29
2022-08-30T11:13:42.357Z,44.15
2022-08-30T11:16:15.358Z,41.46
2022-08-30T11:18:47.233Z,41.86
2022-08-30T11:21:24.368Z,40.37
2022-08-30T11:27:02.013Z,40.41
2022-08-30T11:29:36.862Z,40.35
2022-08-30T11:32:46.049Z,40.68
2022-08-30T11:35:37.964Z,40.81
2022-08-30T11:38:17.935Z,40.91
2022-08-30T11:40:50.260Z,40.80
2022-08-30T11:43:53.264Z,41.22
2022-08-30T11:46:36.109Z,41.54
2022-08-30T11:49:28.384Z,43.62
2022-08-30T11:52:27.714Z,42.85
2022-08-30T11:55:12.817Z,43.15
2022-08-30T11:57:49.752Z,44.78
2022-08-30T12:00:31.319Z,42.35
2022-08-30T12:03:03.671Z,43.72
2022-08-30T12:05:52.754Z,42.80
2022-08-30T12:08:55.187Z,43.17
2022-08-30T12:11:57.815Z,43.56
2022-08-30T12:14:41.155Z,40.95
2022-08-30T12:17:33.169Z,41.95
2022-08-30T12:20:01.317Z,41.22
2022-08-30T12:22:30.509Z,40.26
2022-08-30T12:24:58.108Z,40.36
2022-08-30T12:27:32.560Z,39.80
2022-08-30T12:30:07.421Z,40.65
2022-08-30T12:32:35.868Z,41.09
2022-08-30T12:35:09.133Z,41.49
2022-08-30T12:37:38.945Z,39.45
2022-08-30T12:40:13.824Z,40.60
2022-08-30T12:42:44.526Z,39.68
2022-08-30T12:45:16.644Z,39.33
2022-08-30T12:47:48.941Z,39.25
2022-08-30T12:50:20.601Z,38.59
2022-08-30T12:52:56.505Z,39.73
2022-08-30T12:55:26.732Z,40.29
2022-08-30T12:58:01.389Z,39.03
2022-08-30T13:00:32.314Z,39.58
2022-08-30T13:03:02.886Z,39.18
2022-08-30T13:05:48.468Z,37.68
2022-08-30T13:08:22.501Z,38.35
2022-08-30T13:11:01.528Z,39.40
2022-08-30T13:13:38.723Z,39.96
2022-08-30T13:16:26.402Z,39.61
2022-08-30T13:19:16.969Z,39.11
2022-08-30T13:21:51.739Z,38.29
2022-08-30T13:24:22.387Z,38.29
2022-08-30T13:26:54.925Z,38.52
2022-08-30T13:29:27.952Z,39.54
2022-08-30T13:31:57.579Z,40.51
2022-08-30T13:34:25.497Z,41.74
2022-08-30T13:36:56.084Z,42.98
2022-08-30T13:39:23.899Z,43.00
2022-08-30T13:41:52.082Z,41.03
2022-08-30T13:44:19.661Z,42.77
2022-08-30T13:46:53.857Z,40.56
2022-08-30T13:52:21.538Z,38.63
2022-08-30T13:54:50.301Z,40.34
2022-08-30T14:00:12.691Z,39.99
2022-08-30T14:02:45.457Z,39.53
2022-08-30T14:05:46.861Z,38.77
2022-08-30T14:08:05.047Z,39.23
2022-08-30T14:10:39.360Z,40.16
2022-08-30T14:13:14.495Z,42.50
2022-08-30T14:15:42.289Z,42.66
2022-08-30T14:18:12.561Z,40.96
2022-08-30T14:20:44.851Z,40.94
2022-08-30T14:23:12.620Z,41.91
2022-08-30T14:25:41.028Z,41.76
2022-08-30T14:28:09.522Z,41.89
2022-08-30T14:30:38.963Z,41.79
2022-08-30T14:33:07.188Z,41.82
2022-08-30T14:35:36.568Z,41.32
2022-08-30T14:38:05.808Z,42.09
2022-08-30T14:40:33.914Z,41.08
2022-08-30T14:43:02.433Z,40.98
2022-08-30T14:45:30.030Z,40.75
2022-08-30T14:47:57.749Z,39.93
2022-08-30T14:50:27.966Z,40.39
2022-08-30T14:52:55.648Z,38.93
2022-08-30T14:55:28.509Z,39.73
2022-08-30T14:57:57.545Z,39.60
2022-08-30T15:00:25.948Z,38.55
2022-08-30T15:02:53.694Z,38.12
2022-08-30T15:05:21.356Z,38.60
2022-08-30T15:07:51.449Z,39.75
2022-08-30T15:10:20.761Z,39.99
2022-08-30T15:12:50.834Z,40.10
2022-08-30T15:15:22.913Z,40.07
2022-08-30T15:17:51.084Z,39.75
2022-08-30T15:20:19.984Z,39.59
2022-08-30T15:22:47.899Z,39.59
2022-08-30T15:25:15.884Z,39.62
2022-08-30T15:27:44.618Z,39.93
2022-08-30T15:30:15.289Z,42.04
2022-08-30T15:32:42.925Z,40.60
2022-08-30T15:35:11.286Z,39.77
2022-08-30T15:37:38.966Z,39.98
2022-08-30T15:40:08.546Z,40.00
2022-08-30T15:42:36.200Z,40.34
2022-08-30T15:45:03.908Z,40.96
2022-08-30T15:47:32.896Z,41.48
2022-08-30T15:50:03.006Z,41.17
2022-08-30T15:52:32.389Z,41.19
2022-08-30T15:55:00.532Z,40.87
2022-08-30T15:57:28.175Z,40.81
2022-08-30T15:59:55.984Z,40.44
2022-08-30T16:02:27.585Z,40.38
2022-08-30T16:04:56.888Z,41.79
2022-08-30T16:07:24.461Z,42.24
2022-08-30T16:09:53.288Z,42.06
2022-08-30T16:12:23.907Z,42.07
2022-08-30T16:14:51.640Z,42.02
2022-08-30T16:17:19.288Z,41.45
2022-08-30T16:19:46.828Z,41.81
2022-08-30T16:22:22.098Z,41.89
2022-08-30T16:24:50.135Z,41.80
2022-08-30T16:27:17.813Z,41.88
2022-08-30T16:29:45.377Z,42.23
2022-08-30T16:32:12.975Z,41.99
2022-08-30T16:34:40.780Z,42.73
2022-08-30T16:37:08.396Z,42.81
2022-08-30T16:39:37.386Z,42.72
2022-08-30T16:42:07.648Z,43.20
2022-08-30T16:44:35.785Z,44.34
2022-08-30T16:47:03.657Z,43.65
2022-08-30T16:49:31.289Z,44.36
2022-08-30T16:51:58.846Z,44.83
2022-08-30T16:54:26.517Z,45.88
2022-08-30T16:56:55.720Z,44.65
2022-08-30T16:59:23.618Z,45.34
2022-08-30T17:01:51.691Z,45.15
2022-08-30T17:04:20.251Z,45.81
2022-08-30T17:06:49.774Z,45.48
2022-08-30T17:09:18.200Z,45.18
2022-08-30T17:11:45.757Z,45.12
2022-08-30T17:14:14.870Z,45.93
2022-08-30T17:16:42.602Z,45.53
2022-08-30T17:19:13.201Z,45.67
2022-08-30T17:21:40.788Z,45.78
2022-08-30T17:24:08.816Z,45.49
2022-08-30T17:26:38.044Z,45.79
2022-08-30T17:29:06.275Z,45.59
2022-08-30T17:31:37.465Z,45.91
2022-08-30T17:34:05.875Z,46.65
2022-08-30T17:36:36.416Z,46.73
2022-08-30T17:39:11.015Z,46.77
2022-08-30T17:41:39.948Z,47.01
2022-08-30T17:44:13.400Z,47.29
2022-08-30T17:46:42.482Z,47.41
2022-08-30T17:49:10.630Z,47.49
2022-08-30T17:51:42.613Z,47.53
2022-08-30T17:54:10.402Z,48.13
2022-08-30T17:56:37.977Z,48.36
2022-08-30T17:59:07.905Z,48.86
2022-08-30T18:01:36.769Z,49.31
2022-08-30T18:04:06.614Z,49.48
2022-08-30T18:06:34.509Z,50.07
2022-08-30T18:09:02.620Z,50.38
2022-08-30T18:11:30.232Z,50.98
2022-08-30T18:13:58.069Z,51.27
2022-08-30T18:16:26.419Z,51.84
2022-08-30T18:18:55.881Z,52.34
2022-08-30T18:21:28.519Z,53.01
2022-08-30T18:23:56.586Z,53.67
2022-08-30T18:26:24.534Z,53.97
2022-08-30T18:28:52.961Z,54.63
2022-08-30T18:31:21.005Z,54.91
2022-08-30T18:33:48.639Z,55.49
2022-08-30T18:36:16.611Z,55.80
2022-08-30T18:38:46.658Z,56.59
2022-08-30T18:41:15.813Z,56.99
2022-08-30T18:43:44.895Z,57.60
2022-08-30T18:46:14.537Z,57.98
2022-08-30T18:48:43.489Z,58.66
2022-08-30T18:51:12.205Z,59.12
2022-08-30T18:53:39.938Z,59.60
2022-08-30T18:56:10.478Z,60.24
2022-08-30T18:58:40.191Z,61.04
2022-08-30T19:01:12.810Z,62.44
2022-08-30T19:03:41.858Z,62.69
2022-08-30T19:06:12.354Z,63.18
2022-08-30T19:08:41.574Z,63.45
2022-08-30T19:11:14.745Z,64.36
2022-08-30T19:13:42.305Z,65.00
2022-08-30T19:16:12.013Z,65.56
2022-08-30T19:18:39.909Z,66.07
2022-08-30T19:21:13.552Z,66.32
2022-08-30T19:23:41.940Z,66.89
2022-08-30T19:26:10.779Z,67.28
2022-08-30T19:28:40.523Z,68.00
2022-08-30T19:31:08.709Z,68.46
2022-08-30T19:33:36.601Z,68.91
2022-08-30T19:36:06.531Z,69.17
2022-08-30T19:38:35.548Z,69.43
2022-08-30T19:41:03.741Z,70.00
2022-08-30T19:43:31.465Z,70.54
2022-08-30T19:46:01.073Z,70.53
2022-08-30T19:48:32.671Z,71.69
2022-08-30T19:51:01.426Z,71.90
2022-08-30T19:53:29.130Z,72.26
2022-08-30T19:55:56.774Z,72.52
2022-08-30T19:58:24.386Z,72.88
2022-08-30T20:01:00.719Z,72.96
2022-08-30T20:03:41.204Z,73.62
2022-08-30T20:06:09.051Z,74.14
2022-08-30T20:08:37.117Z,74.65
2022-08-30T20:11:04.818Z,75.02
2022-08-30T20:13:34.319Z,74.95
2022-08-30T20:16:02.327Z,75.34
2022-08-30T20:18:30.182Z,76.09
2022-08-30T20:20:59.157Z,79.52
2022-08-30T20:23:26.957Z,80.95
2022-08-30T20:25:55.598Z,81.79
2022-08-30T20:28:24.535Z,82.41
2022-08-30T20:30:53.185Z,83.32
2022-08-30T20:33:21.652Z,83.76
2022-08-30T20:35:49.914Z,85.41
2022-08-30T20:38:21.946Z,85.77
2022-08-30T20:40:51.562Z,84.92
2022-08-30T20:43:20.244Z,85.03
2022-08-30T20:45:48.323Z,85.02
2022-08-30T20:48:16.286Z,85.45
2022-08-30T20:50:44.729Z,86.51
2022-08-30T20:53:12.825Z,85.88
2022-08-30T20:55:43.346Z,86.09
2022-08-30T20:58:11.396Z,86.51
2022-08-30T21:00:39.052Z,86.92
2022-08-30T21:03:11.409Z,86.90
2022-08-30T21:05:54.174Z,89.20
2022-08-30T21:08:21.785Z,91.06
2022-08-30T21:10:50.797Z,90.62
2022-08-30T21:13:18.546Z,89.84
2022-08-30T21:15:46.403Z,91.20
2022-08-30T21:18:14.614Z,90.29
2022-08-30T21:20:42.606Z,90.69
2022-08-30T21:23:10.552Z,90.87
2022-08-30T21:25:39.396Z,90.62
2022-08-30T21:28:08.710Z,91.27
2022-08-30T21:30:37.232Z,91.74
2022-08-30T21:33:05.496Z,91.61
2022-08-30T21:35:50.908Z,91.49
2022-08-30T21:38:19.367Z,92.32
2022-08-30T21:40:48.350Z,91.88
2022-08-30T21:43:17.420Z,92.52
2022-08-30T21:45:46.404Z,91.46
2022-08-30T21:48:14.969Z,91.76
2022-08-30T21:50:43.787Z,91.41
2022-08-30T21:53:15.409Z,90.98
2022-08-30T21:55:44.789Z,90.63
2022-08-30T21:58:12.357Z,90.90
2022-08-30T22:00:41.245Z,90.35
2022-08-30T22:03:08.975Z,89.54
2022-08-30T22:05:36.593Z,89.96
2022-08-30T22:08:04.530Z,89.64
2022-08-30T22:10:33.398Z,89.09
2022-08-30T22:13:01.169Z,89.14
2022-08-30T22:15:28.980Z,88.76
2022-08-30T22:17:58.462Z,88.55
2022-08-30T22:20:26.025Z,88.45
2022-08-30T22:22:58.024Z,88.25
2022-08-30T22:25:26.489Z,87.89
2022-08-30T22:27:54.043Z,88.04
2022-08-30T22:30:21.825Z,88.30
2022-08-30T22:32:49.809Z,87.72
2022-08-30T22:35:20.398Z,87.42
2022-08-30T22:37:52.996Z,86.93
2022-08-30T22:40:22.022Z,87.26
2022-08-30T22:42:49.616Z,87.74
2022-08-30T22:45:17.511Z,87.93
2022-08-30T22:47:45.091Z,87.61
2022-08-30T22:50:13.124Z,88.19
2022-08-30T22:52:42.054Z,88.10
2022-08-30T22:55:09.832Z,87.03
2022-08-30T22:57:37.964Z,87.05
2022-08-30T23:00:07.554Z,86.90
2022-08-30T23:02:35.989Z,86.75
2022-08-30T23:05:04.392Z,87.32
2022-08-30T23:07:32.234Z,87.64
2022-08-30T23:10:01.401Z,87.82
2022-08-30T23:12:29.066Z,88.01
2022-08-30T23:14:56.632Z,89.01
2022-08-30T23:17:24.237Z,89.94
2022-08-30T23:19:51.769Z,91.32
2022-08-30T23:22:19.336Z,93.58
2022-08-30T23:25:05.328Z,95.23
2022-08-30T23:27:59.470Z,94.69
2022-08-30T23:30:44.885Z,96.28
2022-08-30T23:33:30.116Z,95.99
2022-08-30T23:36:15.067Z,96.43
2022-08-30T23:39:00.529Z,96.51
2022-08-30T23:41:45.769Z,96.66
2022-08-30T23:44:32.267Z,96.64
2022-08-30T23:47:17.666Z,95.67
2022-08-30T23:50:02.880Z,95.28
2022-08-30T23:52:48.159Z,95.67
2022-08-30T23:55:33.017Z,95.39
2022-08-30T23:58:18.488Z,95.83
